createdAt,value
2023-01-07T00:01:30.846Z,100716.84
2023-01-07T00:04:03.006Z,100709.66
2023-01-07T00:06:36.639Z,100693.25
2023-01-07T00:09:10.034Z,100679.16
2023-01-07T00:11:42.647Z,100680.28
2023-01-07T00:14:16.326Z,100672.78
2023-01-07T00:16:47.607Z,100663.25
2023-01-07T00:19:19.267Z,100653.66
2023-01-07T00:21:50.504Z,100652.72
2023-01-07T00:24:21.642Z,100656.47
2023-01-07T00:26:52.668Z,100656.28
2023-01-07T00:29:24.177Z,100675.03
2023-01-07T00:31:55.576Z,100696.47
2023-01-07T00:34:29.271Z,100716.66
2023-01-07T00:37:20.245Z,100724.56
2023-01-07T00:39:51.780Z,100733.16
2023-01-07T00:42:40.935Z,100734.66
2023-01-07T00:45:12.458Z,100741.16
2023-01-07T00:47:42.779Z,100741.88
2023-01-07T00:50:13.773Z,100734.97
2023-01-07T00:52:45.739Z,100726.97
2023-01-07T00:55:17.808Z,100732.47
2023-01-07T00:57:49.629Z,100732.63
2023-01-07T01:00:23.034Z,100729.72
2023-01-07T01:02:54.761Z,100723.34
2023-01-07T01:05:26.137Z,100734.28
2023-01-07T01:07:57.363Z,100727.47
2023-01-07T01:10:29.455Z,100731.22
2023-01-07T01:13:00.392Z,100727.91
2023-01-07T01:15:31.594Z,100726.38
2023-01-07T01:18:02.867Z,100719.47
2023-01-07T01:20:33.819Z,100720.06
2023-01-07T01:23:04.853Z,100710.06
2023-01-07T01:25:35.857Z,100705.16
2023-01-07T01:28:07.335Z,100695.16
2023-01-07T01:30:38.060Z,100700.63
2023-01-07T01:33:09.410Z,100690.34
2023-01-07T01:35:43.347Z,100685.88
2023-01-07T01:38:14.732Z,100674.06
2023-01-07T01:40:45.857Z,100667.22
2023-01-07T01:43:38.439Z,100657.25
2023-01-07T01:46:22.838Z,100645.34
2023-01-07T01:49:00.924Z,100647.59
2023-01-07T01:51:36.215Z,100639.69
2023-01-07T01:54:09.515Z,100625.56
2023-01-07T01:56:44.603Z,100635.31
2023-01-07T01:59:20.393Z,100658.69
2023-01-07T02:01:52.288Z,100673.56
2023-01-07T02:04:23.648Z,100684.63
2023-01-07T02:07:07.610Z,100683.63
2023-01-07T02:09:41.249Z,100671.31
2023-01-07T02:12:34.034Z,100666.66
2023-01-07T02:15:23.486Z,100668.19
2023-01-07T02:18:23.497Z,100662.72
2023-01-07T02:21:00.696Z,100664.44
2023-01-07T02:23:43.696Z,100650.28
2023-01-07T02:26:36.319Z,100649.75
2023-01-07T02:29:28.913Z,100639.72
2023-01-07T02:32:13.077Z,100648.84
2023-01-07T02:35:08.438Z,100645.28
2023-01-07T02:38:14.717Z,100638.84
2023-01-07T02:41:14.239Z,100630.25
2023-01-07T02:43:58.951Z,100637.56
2023-01-07T02:47:19.160Z,100636.56
2023-01-07T02:49:51.316Z,100643.66
2023-01-07T02:52:28.897Z,100651.81
2023-01-07T02:55:08.972Z,100640.97
2023-01-07T02:57:56.627Z,100656.41
2023-01-07T03:00:49.054Z,100654.16
2023-01-07T03:03:34.324Z,100646.91
2023-01-07T03:06:25.253Z,100653.00
2023-01-07T03:09:05.720Z,100663.13
2023-01-07T03:11:55.492Z,100653.81
2023-01-07T03:14:41.401Z,100668.63
2023-01-07T03:17:17.092Z,100673.09
2023-01-07T03:19:51.845Z,100682.25
2023-01-07T03:22:25.793Z,100676.53
2023-01-07T03:24:59.080Z,100691.00
2023-01-07T03:27:32.812Z,100687.84
2023-01-07T03:30:07.146Z,100672.16
2023-01-07T03:32:44.812Z,100671.78
2023-01-07T03:35:16.205Z,100683.81
2023-01-07T03:37:48.134Z,100678.88
2023-01-07T03:40:19.854Z,100685.06
2023-01-07T03:42:52.090Z,100685.63
2023-01-07T03:45:28.295Z,100677.97
2023-01-07T03:48:01.869Z,100675.50
2023-01-07T03:50:38.839Z,100658.63
2023-01-07T03:53:10.871Z,100668.50
2023-01-07T03:55:43.173Z,100657.50
2023-01-07T03:58:14.246Z,100670.50
2023-01-07T04:00:45.480Z,100654.75
2023-01-07T04:03:21.487Z,100653.94
2023-01-07T04:05:53.452Z,100667.22
2023-01-07T04:08:26.835Z,100672.03
2023-01-07T04:10:58.105Z,100675.31
2023-01-07T04:13:30.652Z,100686.38
2023-01-07T04:16:01.580Z,100678.41
2023-01-07T04:18:32.748Z,100670.41
2023-01-07T04:21:03.942Z,100678.22
2023-01-07T04:23:35.333Z,100675.81
2023-01-07T04:26:06.981Z,100672.09
2023-01-07T04:28:38.267Z,100667.09
2023-01-07T04:31:09.546Z,100670.03
2023-01-07T04:33:41.111Z,100680.34
2023-01-07T04:36:14.658Z,100664.00
2023-01-07T04:38:45.751Z,100671.75
2023-01-07T04:41:16.617Z,100671.28
2023-01-07T04:43:47.791Z,100676.84
2023-01-07T04:46:19.142Z,100661.81
2023-01-07T04:48:51.243Z,100663.56
2023-01-07T04:51:22.501Z,100674.38
2023-01-07T04:53:54.651Z,100660.00
2023-01-07T04:56:26.931Z,100666.13
2023-01-07T04:58:58.087Z,100668.06
2023-01-07T05:01:34.096Z,100668.06
2023-01-07T05:04:05.504Z,100667.25
2023-01-07T05:06:36.728Z,100662.38
2023-01-07T05:09:07.913Z,100669.25
2023-01-07T05:11:39.051Z,100668.22
2023-01-07T05:14:13.250Z,100673.38
2023-01-07T05:16:44.555Z,100670.16
2023-01-07T05:19:16.474Z,100667.72
2023-01-07T05:21:50.688Z,100670.41
2023-01-07T05:24:22.445Z,100673.94
2023-01-07T05:26:55.145Z,100674.47
2023-01-07T05:29:26.045Z,100668.38
2023-01-07T05:31:57.442Z,100666.44
2023-01-07T05:34:29.517Z,100679.84
2023-01-07T05:37:01.529Z,100674.69
2023-01-07T05:39:33.911Z,100674.75
2023-01-07T05:42:07.505Z,100680.66
2023-01-07T05:44:38.151Z,100672.88
2023-01-07T05:47:09.369Z,100669.91
2023-01-07T05:49:40.507Z,100676.84
2023-01-07T05:52:11.595Z,100676.84
2023-01-07T05:54:42.969Z,100681.38
2023-01-07T05:57:14.636Z,100694.31
2023-01-07T05:59:46.080Z,100689.19
2023-01-07T06:02:17.331Z,100702.28
2023-01-07T06:04:48.253Z,100707.69
2023-01-07T06:07:19.408Z,100707.66
2023-01-07T06:09:50.655Z,100710.34
2023-01-07T06:12:21.561Z,100717.44
2023-01-07T06:14:52.941Z,100722.19
2023-01-07T06:17:23.885Z,100733.78
2023-01-07T06:19:55.515Z,100737.09
2023-01-07T06:22:26.480Z,100740.78
2023-01-07T06:24:57.594Z,100735.00
2023-01-07T06:27:28.734Z,100727.06
2023-01-07T06:30:00.069Z,100731.06
2023-01-07T06:32:33.343Z,100743.66
2023-01-07T06:35:04.496Z,100745.25
2023-01-07T06:37:35.873Z,100750.66
2023-01-07T06:40:08.144Z,100759.34
2023-01-07T06:42:39.345Z,100751.22
2023-01-07T06:45:10.656Z,100744.72
2023-01-07T06:47:41.743Z,100754.91
2023-01-07T06:50:13.665Z,100754.81
2023-01-07T06:52:45.413Z,100760.00
2023-01-07T06:55:15.769Z,100758.47
2023-01-07T06:57:47.676Z,100757.84
2023-01-07T07:00:19.057Z,100767.09
2023-01-07T07:02:49.711Z,100771.97
2023-01-07T07:05:21.059Z,100784.31
2023-01-07T07:07:51.653Z,100781.28
2023-01-07T07:10:22.682Z,100766.00
2023-01-07T07:12:53.853Z,100774.59
2023-01-07T07:15:24.948Z,100779.97
2023-01-07T07:17:56.035Z,100780.69
2023-01-07T07:20:26.692Z,100785.94
2023-01-07T07:22:57.818Z,100786.66
2023-01-07T07:25:29.014Z,100785.31
2023-01-07T07:28:00.151Z,100795.63
2023-01-07T07:30:45.836Z,100802.28
2023-01-07T07:33:20.440Z,100803.66
2023-01-07T07:35:51.871Z,100815.34
2023-01-07T07:38:22.883Z,100820.50
2023-01-07T07:40:54.082Z,100819.66
2023-01-07T07:43:25.194Z,100824.03
2023-01-07T07:45:56.053Z,100824.41
2023-01-07T07:48:27.562Z,100823.81
2023-01-07T07:50:58.845Z,100822.03
2023-01-07T07:53:30.107Z,100819.00
2023-01-07T07:56:01.442Z,100818.84
2023-01-07T07:58:34.866Z,100812.22
2023-01-07T08:01:06.300Z,100820.94
2023-01-07T08:03:37.108Z,100820.94
2023-01-07T08:06:09.953Z,100831.56
2023-01-07T08:08:40.295Z,100829.47
2023-01-07T08:11:12.167Z,100832.22
2023-01-07T08:13:43.600Z,100836.16
2023-01-07T08:16:14.953Z,100838.50
2023-01-07T08:18:46.249Z,100836.03
2023-01-07T08:21:17.439Z,100842.19
2023-01-07T08:23:48.694Z,100845.56
2023-01-07T08:26:19.860Z,100840.31
2023-01-07T08:28:51.152Z,100847.41
2023-01-07T08:31:22.436Z,100847.66
2023-01-07T08:33:53.789Z,100843.66
2023-01-07T08:36:24.898Z,100841.19
2023-01-07T08:38:56.980Z,100849.19
2023-01-07T08:41:28.515Z,100854.88
2023-01-07T08:43:59.545Z,100861.28
2023-01-07T08:46:31.046Z,100864.16
2023-01-07T08:49:01.733Z,100863.88
2023-01-07T08:51:32.893Z,100868.72
2023-01-07T08:54:03.988Z,100872.88
2023-01-07T08:56:35.321Z,100877.53
2023-01-07T08:59:07.381Z,100870.88
2023-01-07T09:01:38.650Z,100881.91
2023-01-07T09:04:10.066Z,100889.50
2023-01-07T09:06:41.229Z,100893.56
2023-01-07T09:09:13.365Z,100899.38
2023-01-07T09:11:45.350Z,100901.53
2023-01-07T09:14:16.620Z,100901.31
2023-01-07T09:16:47.731Z,100905.13
2023-01-07T09:19:19.154Z,100901.63
2023-01-07T09:21:50.214Z,100903.81
2023-01-07T09:24:21.648Z,100902.00
2023-01-07T09:26:52.942Z,100902.22
2023-01-07T09:29:24.126Z,100905.97
2023-01-07T09:31:55.229Z,100900.13
2023-01-07T09:34:26.330Z,100908.88
2023-01-07T09:36:57.648Z,100908.06
2023-01-07T09:39:29.008Z,100916.00
2023-01-07T09:42:15.540Z,100920.72
2023-01-07T09:44:52.860Z,100920.47
2023-01-07T09:47:26.547Z,100925.09
2023-01-07T09:50:06.099Z,100921.63
2023-01-07T09:52:40.705Z,100924.59
2023-01-07T09:55:26.676Z,100920.84
2023-01-07T09:57:57.752Z,100928.75
2023-01-07T10:00:30.496Z,100938.53
2023-01-07T10:03:31.407Z,100942.56
2023-01-07T10:06:10.628Z,100936.88
2023-01-07T10:09:08.954Z,100937.22
2023-01-07T10:12:05.619Z,100935.06
2023-01-07T10:15:29.654Z,100944.63
2023-01-07T10:18:21.309Z,100935.81
2023-01-07T10:21:01.457Z,100940.47
2023-01-07T10:23:37.373Z,100940.50
2023-01-07T10:26:13.348Z,100941.81
2023-01-07T10:28:57.561Z,100947.78
2023-01-07T10:31:30.064Z,100948.13
2023-01-07T10:34:02.116Z,100953.16
2023-01-07T10:36:41.132Z,100951.50
2023-01-07T10:39:21.384Z,100946.59
2023-01-07T10:42:28.572Z,100949.06
2023-01-07T10:45:18.057Z,100949.88
2023-01-07T10:47:58.520Z,100948.28
2023-01-07T10:50:54.989Z,100948.00
2023-01-07T10:53:50.859Z,100943.19
2023-01-07T10:56:38.645Z,100946.78
2023-01-07T10:59:16.462Z,100948.72
2023-01-07T11:01:53.285Z,100951.19
2023-01-07T11:04:24.511Z,100943.22
2023-01-07T11:07:12.162Z,100947.91
2023-01-07T11:09:46.382Z,100944.91
2023-01-07T11:12:39.251Z,100946.25
2023-01-07T11:15:32.138Z,100950.19
2023-01-07T11:18:11.032Z,100953.97
2023-01-07T11:20:56.216Z,100959.75
2023-01-07T11:23:37.644Z,100960.28
2023-01-07T11:26:36.051Z,100959.25
2023-01-07T11:29:41.274Z,100954.34
2023-01-07T11:32:30.459Z,100947.31
2023-01-07T11:35:19.102Z,100945.72
2023-01-07T11:37:51.772Z,100945.16
2023-01-07T11:40:31.200Z,100945.19
2023-01-07T11:43:04.069Z,100946.03
2023-01-07T11:45:39.517Z,100947.97
2023-01-07T11:48:15.096Z,100942.22
2023-01-07T11:50:57.158Z,100947.63
2023-01-07T11:53:33.740Z,100941.38
2023-01-07T11:56:13.750Z,100943.59
2023-01-07T11:58:49.548Z,100939.75
2023-01-07T12:01:25.506Z,100942.81
2023-01-07T12:03:56.833Z,100946.00
2023-01-07T12:06:31.207Z,100922.41
2023-01-07T12:09:28.087Z,100926.75
2023-01-07T12:12:33.389Z,100920.00
2023-01-07T12:15:25.351Z,100926.19
2023-01-07T12:18:21.309Z,100926.97
2023-01-07T12:21:16.918Z,100926.75
2023-01-07T12:23:48.039Z,100923.53
2023-01-07T12:26:47.950Z,100931.69
2023-01-07T12:29:41.661Z,100922.41
2023-01-07T12:32:43.220Z,100919.69
2023-01-07T12:35:25.367Z,100908.81
2023-01-07T12:37:58.936Z,100924.59
2023-01-07T12:40:36.655Z,100920.78
2023-01-07T12:43:25.757Z,100922.94
2023-01-07T12:46:07.117Z,100914.75
2023-01-07T12:48:44.729Z,100911.28
2023-01-07T12:51:36.307Z,100912.34
2023-01-07T12:54:19.660Z,100924.53
2023-01-07T12:57:00.622Z,100914.78
2023-01-07T12:59:46.363Z,100914.25
2023-01-07T13:02:43.161Z,100913.13
2023-01-07T13:05:25.956Z,100914.22
2023-01-07T13:08:17.144Z,100913.13
2023-01-07T13:10:58.223Z,100908.53
2023-01-07T13:13:41.314Z,100902.50
2023-01-07T13:16:14.117Z,100898.44
2023-01-07T13:18:45.612Z,100912.06
2023-01-07T13:21:18.925Z,100913.69
2023-01-07T13:24:11.342Z,100909.03
2023-01-07T13:26:55.099Z,100911.22
2023-01-07T13:29:52.014Z,100911.47
2023-01-07T13:32:27.098Z,100908.53
2023-01-07T13:35:03.902Z,100905.31
2023-01-07T13:37:59.291Z,100901.22
2023-01-07T13:41:03.736Z,100904.19
2023-01-07T13:43:50.158Z,100894.41
2023-01-07T13:46:24.633Z,100902.03
2023-01-07T13:48:57.058Z,100903.19
2023-01-07T13:51:33.735Z,100897.44
2023-01-07T13:54:05.513Z,100896.66
2023-01-07T13:56:40.759Z,100890.66
2023-01-07T13:59:33.352Z,100888.47
2023-01-07T14:02:19.937Z,100885.78
2023-01-07T14:05:14.107Z,100885.53
2023-01-07T14:08:04.110Z,100877.38
2023-01-07T14:10:37.358Z,100874.38
2023-01-07T14:13:36.168Z,100868.94
2023-01-07T14:16:21.139Z,100845.34
2023-01-07T14:19:04.273Z,100870.31
2023-01-07T14:21:42.650Z,100859.44
2023-01-07T14:24:34.613Z,100867.56
2023-01-07T14:27:41.535Z,100864.59
2023-01-07T14:30:22.538Z,100871.16
2023-01-07T14:33:07.271Z,100875.25
2023-01-07T14:35:44.862Z,100877.38
2023-01-07T14:38:45.357Z,100870.59
2023-01-07T14:41:21.945Z,100880.41
2023-01-07T14:44:03.825Z,100881.78
2023-01-07T14:46:37.168Z,100882.88
2023-01-07T14:49:33.879Z,100886.91
2023-01-07T14:52:22.412Z,100876.00
2023-01-07T14:55:11.506Z,100886.91
2023-01-07T14:58:08.825Z,100866.56
2023-01-07T15:01:03.874Z,100886.63
2023-01-07T15:03:56.330Z,100890.97
2023-01-07T15:06:40.613Z,100880.66
2023-01-07T15:09:37.196Z,100888.78
2023-01-07T15:12:32.518Z,100885.53
2023-01-07T15:15:30.634Z,100881.19
2023-01-07T15:18:01.900Z,100886.63
2023-01-07T15:21:02.227Z,100874.13
2023-01-07T15:24:03.753Z,100887.13
2023-01-07T15:27:04.224Z,100886.34
2023-01-07T15:29:38.244Z,100881.16
2023-01-07T15:32:15.265Z,100885.19
2023-01-07T15:34:46.307Z,100885.53
2023-01-07T15:37:18.259Z,100882.28
2023-01-07T15:39:53.484Z,100887.41
2023-01-07T15:42:30.574Z,100883.91
2023-01-07T15:45:01.954Z,100890.97
2023-01-07T15:47:38.391Z,100887.97
2023-01-07T15:50:24.328Z,100892.06
2023-01-07T15:53:14.907Z,100893.09
2023-01-07T15:55:53.905Z,100890.44
2023-01-07T15:58:50.254Z,100889.88
2023-01-07T16:01:27.955Z,100893.16
2023-01-07T16:04:00.665Z,100888.53
2023-01-07T16:06:35.525Z,100894.53
2023-01-07T16:09:19.894Z,100899.19
2023-01-07T16:11:51.489Z,100879.06
2023-01-07T16:14:24.497Z,100896.16
2023-01-07T16:17:28.795Z,100896.72
2023-01-07T16:20:14.102Z,100909.75
2023-01-07T16:22:46.249Z,100919.53
2023-01-07T16:25:28.188Z,100916.81
2023-01-07T16:27:58.734Z,100924.19
2023-01-07T16:30:30.071Z,100923.09
2023-01-07T16:33:01.436Z,100927.16
2023-01-07T16:35:36.993Z,100933.97
2023-01-07T16:38:08.377Z,100928.78
2023-01-07T16:40:40.583Z,100924.97
2023-01-07T16:43:34.352Z,100930.16
2023-01-07T16:46:26.263Z,100936.16
2023-01-07T16:49:14.887Z,100935.31
2023-01-07T16:51:48.784Z,100933.13
2023-01-07T16:54:33.740Z,100941.59
2023-01-07T16:57:27.473Z,100934.53
2023-01-07T17:00:00.126Z,100941.88
2023-01-07T17:02:53.531Z,100941.59
2023-01-07T17:05:32.076Z,100937.78
2023-01-07T17:08:06.692Z,100935.06
2023-01-07T17:10:42.049Z,100938.06
2023-01-07T17:13:16.727Z,100947.59
2023-01-07T17:15:47.973Z,100942.69
2023-01-07T17:18:19.049Z,100948.66
2023-01-07T17:20:54.654Z,100951.94
2023-01-07T17:23:38.092Z,100944.06
2023-01-07T17:26:21.359Z,100954.66
2023-01-07T17:29:01.438Z,100949.50
2023-01-07T17:31:32.555Z,100953.56
2023-01-07T17:34:03.924Z,100964.16
2023-01-07T17:36:34.883Z,100967.38
2023-01-07T17:39:06.191Z,100953.25
2023-01-07T17:41:57.323Z,100972.56
2023-01-07T17:44:28.669Z,100969.84
2023-01-07T17:46:59.663Z,100967.91
2023-01-07T17:49:31.028Z,100968.72
2023-01-07T17:52:02.258Z,100977.94
2023-01-07T17:54:33.696Z,100975.47
2023-01-07T17:57:04.648Z,100980.06
2023-01-07T17:59:35.750Z,100980.06
2023-01-07T18:02:07.969Z,100969.41
2023-01-07T18:04:39.172Z,100980.56
2023-01-07T18:07:14.973Z,100985.41
2023-01-07T18:09:46.016Z,100987.28
2023-01-07T18:12:34.637Z,100993.00
2023-01-07T18:15:07.544Z,100997.91
2023-01-07T18:17:38.485Z,100998.41
2023-01-07T18:20:09.860Z,100998.13
2023-01-07T18:22:41.051Z,100999.22
2023-01-07T18:25:21.756Z,101004.91
2023-01-07T18:27:57.296Z,101009.25
2023-01-07T18:30:31.325Z,101014.63
2023-01-07T18:33:02.953Z,101021.38
2023-01-07T18:35:34.196Z,101024.06
2023-01-07T18:38:06.113Z,101017.53
2023-01-07T18:40:37.538Z,101025.66
2023-01-07T18:43:09.240Z,101017.75
2023-01-07T18:45:45.928Z,101020.72
2023-01-07T18:48:18.546Z,101025.28
2023-01-07T18:50:51.985Z,101036.47
2023-01-07T18:53:24.052Z,101036.00
2023-01-07T18:56:03.827Z,101049.19
2023-01-07T18:58:35.151Z,101033.13
2023-01-07T19:01:10.434Z,101037.44
2023-01-07T19:03:41.970Z,101040.06
2023-01-07T19:06:14.051Z,101048.88
2023-01-07T19:08:48.634Z,101036.31
2023-01-07T19:11:20.203Z,101040.84
2023-01-07T19:13:51.214Z,101035.56
2023-01-07T19:16:22.291Z,101033.47
2023-01-07T19:18:54.705Z,101033.59
2023-01-07T19:21:28.183Z,101035.44
2023-01-07T19:24:00.449Z,101030.72
2023-01-07T19:26:31.559Z,101026.19
2023-01-07T19:29:03.333Z,101028.75
2023-01-07T19:31:35.802Z,101036.66
2023-01-07T19:34:07.284Z,101037.41
2023-01-07T19:36:38.422Z,101020.53
2023-01-07T19:39:09.727Z,101031.81
2023-01-07T19:41:40.754Z,101029.56
2023-01-07T19:44:12.075Z,101028.78
2023-01-07T19:46:44.164Z,101021.28
2023-01-07T19:49:15.737Z,101024.31
2023-01-07T19:51:47.001Z,101027.03
2023-01-07T19:54:18.419Z,101024.19
2023-01-07T19:56:49.484Z,101031.44
2023-01-07T19:59:20.315Z,101026.34
2023-01-07T20:01:51.605Z,101026.47
2023-01-07T20:04:23.541Z,101029.69
2023-01-07T20:06:55.076Z,101026.53
2023-01-07T20:09:26.678Z,101029.59
2023-01-07T20:11:57.325Z,101023.22
2023-01-07T20:14:28.674Z,101027.13
2023-01-07T20:17:00.796Z,101022.34
2023-01-07T20:19:32.306Z,101022.41
2023-01-07T20:22:03.043Z,101022.19
2023-01-07T20:24:35.111Z,101028.34
2023-01-07T20:27:06.988Z,101025.50
2023-01-07T20:29:40.180Z,101015.13
2023-01-07T20:32:11.630Z,101019.03
2023-01-07T20:34:43.258Z,101024.09
2023-01-07T20:37:14.467Z,101025.16
2023-01-07T20:39:45.770Z,101028.50
2023-01-07T20:42:17.065Z,101019.59
2023-01-07T20:44:48.875Z,101023.38
2023-01-07T20:47:20.381Z,101010.69
2023-01-07T20:49:51.568Z,101023.22
2023-01-07T20:52:22.829Z,101007.31
2023-01-07T20:54:53.849Z,101013.38
2023-01-07T20:57:25.424Z,101011.06
2023-01-07T20:59:56.447Z,101001.44
2023-01-07T21:02:28.260Z,101004.81
2023-01-07T21:04:59.670Z,100998.03
2023-01-07T21:07:30.944Z,101011.31
2023-01-07T21:10:01.361Z,101007.38
2023-01-07T21:12:32.899Z,100997.06
2023-01-07T21:15:03.608Z,101013.03
2023-01-07T21:17:35.451Z,101011.00
2023-01-07T21:20:06.590Z,101006.34
2023-01-07T21:22:39.639Z,101004.53
2023-01-07T21:25:12.918Z,101001.94
2023-01-07T21:27:44.914Z,101000.16
2023-01-07T21:30:19.183Z,101003.25
2023-01-07T21:32:50.225Z,101002.59
2023-01-07T21:35:21.770Z,101004.50
2023-01-07T21:37:57.019Z,101012.31
2023-01-07T21:40:28.298Z,101006.69
2023-01-07T21:42:59.643Z,101009.13
2023-01-07T21:45:30.884Z,101005.75
2023-01-07T21:48:02.353Z,101002.97
2023-01-07T21:50:33.829Z,101004.09
2023-01-07T21:53:04.935Z,101000.78
2023-01-07T21:55:35.635Z,101019.38
2023-01-07T21:58:07.068Z,101022.44
2023-01-07T22:00:38.466Z,101019.19
2023-01-07T22:03:10.038Z,101020.75
2023-01-07T22:05:42.873Z,101016.88
2023-01-07T22:08:14.206Z,101014.94
2023-01-07T22:10:50.482Z,101014.53
2023-01-07T22:13:22.493Z,101015.75
2023-01-07T22:15:53.610Z,101017.75
2023-01-07T22:18:25.574Z,101015.72
2023-01-07T22:20:57.714Z,101008.13
2023-01-07T22:23:29.055Z,101006.81
2023-01-07T22:26:10.903Z,101016.25
2023-01-07T22:28:42.547Z,101007.09
2023-01-07T22:31:23.433Z,101014.94
2023-01-07T22:33:54.926Z,101002.59
2023-01-07T22:36:49.989Z,101002.47
2023-01-07T22:39:33.776Z,101009.91
2023-01-07T22:42:10.658Z,101008.44
2023-01-07T22:44:47.785Z,101015.69
2023-01-07T22:47:22.893Z,101006.56
2023-01-07T22:49:54.967Z,101001.84
2023-01-07T22:52:26.050Z,101013.28
2023-01-07T22:54:58.142Z,101007.47
2023-01-07T22:57:30.152Z,100996.88
2023-01-07T23:00:02.082Z,101003.22
2023-01-07T23:02:33.518Z,101002.25
2023-01-07T23:05:05.146Z,100997.50
2023-01-07T23:07:35.714Z,101001.06
2023-01-07T23:10:08.035Z,100998.28
2023-01-07T23:12:39.089Z,100990.22
2023-01-07T23:15:13.194Z,100992.06
2023-01-07T23:17:44.760Z,100996.00
2023-01-07T23:20:16.439Z,100984.31
2023-01-07T23:22:46.999Z,100980.38
2023-01-07T23:25:18.060Z,100987.09
2023-01-07T23:27:50.615Z,100987.75
2023-01-07T23:30:22.116Z,100984.69
2023-01-07T23:32:56.810Z,100980.09
2023-01-07T23:35:28.093Z,100978.69
2023-01-07T23:37:58.560Z,100972.31
2023-01-07T23:40:30.607Z,100970.00
2023-01-07T23:43:01.786Z,100972.31
2023-01-07T23:45:33.385Z,100967.59
2023-01-07T23:48:04.030Z,100966.00
2023-01-07T23:50:35.529Z,100965.06
2023-01-07T23:53:06.853Z,100961.47
2023-01-07T23:55:40.579Z,100961.03
2023-01-07T23:58:11.954Z,100954.50
